KSBN/SBN METAR and TAF weather

Enter ICAO airport designator
Station Type Date Time Source
KSBN METAR 2020/07/07 23:54 UTC NOAA

KSBN 072354Z 00000KT 10SM CLR 31/21 A2994 RMK AO2 SLP132 T03060211 10344 20272 55005


Station Type Date Time Source
KSBN Decoded METAR 2020/07/07 23:54 UTC NOAA

SOUTH BEND REGIONAL AIRPORT, IN, United States (KSBN) 41-42N 086-19W 237M
Jul 07, 2020 - 07:54 PM EDT / 2020.07.07 2354 UTC
Wind: Calm:0
Visibility: 10 mile(s):0
Sky conditions: clear
Temperature: 87.1 F (30.6 C)
Dew Point: 70.0 F (21.1 C)
Relative Humidity: 56%
Pressure (altimeter): 29.94 in. Hg (1013 hPa)
Pressure tendency: 0.01 inches (0.5 hPa) lower than three hours ago
ob: KSBN 072354Z 00000KT 10SM CLR 31/21 A2994 RMK AO2 SLP132 T03060211 10344 20272 55005
cycle: 0

Station Type Date Time Source
KSBN TAF 2020/07/07 18:22 UTC NOAA

TAF KSBN 071720Z 0718/0818 26005KT P6SM VCTS SCT060CB
FM080000 00000KT P6SM FEW250

Example: see airport list